This is the latest recevied weather packets stored in our database for station/object VK3BYD-3. If no packets are shown the sender has not sent any weather packets the latest 10 day(s).
| Time | Temp. | Humidity | Pressure | Rain* | Wind** | Luminosity | Snow |
|---|---|---|---|---|---|---|---|
| 1777679058 | 21.67° C | 57% | 1021.6 hPa | 0 mm | - | - | - |
| 1777678158 | 20.56° C | 60% | 1021.8 hPa | 0 mm | - | - | - |
| 1777677254 | 20.56° C | 60% | 1021.7 hPa | 0 mm | - | - | - |
| 1777676354 | 20° C | 63% | 1021.7 hPa | 0 mm | - | - | - |
| 1777675454 | 18.89° C | 64% | 1021.7 hPa | 0 mm | - | - | - |
| 1777674552 | 18.89° C | 65% | 1021.6 hPa | 0 mm | - | - | - |
| 1777673652 | 18.33° C | 67% | 1021.5 hPa | 0 mm | - | - | - |
| 1777672752 | 17.22° C | 68% | 1021.5 hPa | 0 mm | - | - | - |
| 1777671852 | 17.22° C | 69% | 1021.4 hPa | 0 mm | - | - | - |
| 1777670952 | 16.67° C | 69% | 1021.4 hPa | 0 mm | - | - | - |
| 1777670052 | 16.67° C | 70% | 1021.4 hPa | 0 mm | - | - | - |
| 1777669152 | 16.67° C | 70% | 1021.4 hPa | 0 mm | - | - | - |
| 1777668250 | 16.11° C | 71% | 1021.3 hPa | 0 mm | - | - | - |
| 1777667348 | 16.11° C | 72% | 1021.5 hPa | 0 mm | - | - | - |
| 1777666445 | 16.11° C | 72% | 1021.5 hPa | 0 mm | - | - | - |
| 1777665543 | 15.56° C | 74% | 1021.4 hPa | 0 mm | - | - | - |
| 1777664641 | 15.56° C | 74% | 1021.4 hPa | 0 mm | - | - | - |
| 1777663736 | 15.56° C | 75% | 1021.4 hPa | 0 mm | - | - | - |
| 1777662836 | 15° C | 76% | 1021.4 hPa | 0 mm | - | - | - |
| 1777661936 | 13.89° C | 80% | 1021.2 hPa | 0 mm | - | - | - |
| 1777661036 | 12.78° C | 83% | 1021.2 hPa | 0 mm | - | - | - |
| 1777660135 | 12.78° C | 82% | 1021.2 hPa | 0 mm | - | - | - |
| 1777659234 | 13.89° C | 79% | 1021.2 hPa | 0 mm | - | - | - |
| 1777658333 | 13.89° C | 83% | 1021.3 hPa | 0 mm | - | - | - |
| 1777657434 | 12.22° C | 87% | 1021.2 hPa | 0 mm | - | - | - |
* Rain latest hour (hover to see other rain measurements)
** Current wind speed in m/s (hover to see current wind gust speed)